Aviation Digital Data Service (ADDS)

Output produced by METARs form (0956 UTC 19 January 2019)
found at http://www.aviationweather.gov/metar/data/
 
KACY 190954Z AUTO 00000KT 2 1/2SM BR CLR M02/M02 A3020 RMK AO2 SLP228 I1000 T10221022
TAF COR KACY 190926Z 1909/2006 VRB04KT 6SM BR SCT050 
     TEMPO 1909/1911 3SM BR 
     FM191200 04005KT P6SM OVC200 
     FM191500 07007KT P6SM OVC100 
     FM192100 10010KT 5SM -RASN OVC025 
     FM192300 10011KT 4SM -RA BR OVC010 
     FM200400 13012KT 1SM +RA OVC008
       
KBLM 190856Z AUTO 27005KT 10SM OVC044 00/M02 A3021 RMK AO2 SLP236 T00001022 50007 FZRANO
KCDW 190953Z AUTO 18003KT 10SM CLR M04/M06 A3022 RMK AO2 SLP239 T10391056
KLDJ 190955Z AUTO 00000KT 10SM CLR M01/M06 A3022 RMK AO2 T10091065
KMIV 190954Z AUTO 03004KT 4SM BR OVC050 00/M02 A3020 RMK AO2 SLP226 T00001017 TSNO
KMIV 190540Z 1906/2006 VRB03KT P6SM BKN050 
     TEMPO 1906/1910 2SM BR 
     FM191400 06005KT P6SM OVC100 
     FM192000 10008KT 4SM -RASN OVC015 
     FM192200 10008KT 3SM RA OVC010 
     FM200400 13008KT 1SM +RA OVC008
       
KMMU 190935Z AUTO 00000KT 7SM CLR M07/M07 A3020 RMK AO2
KVAY 190954Z AUTO 00000KT 3SM BR BKN048 M02/M02 A3021 RMK AO2 SLP230 T10171022
KEWR 190951Z 34006KT 10SM FEW045 SCT250 M01/M07 A3021 RMK AO2 SLP230 T10061067
KEWR 190833Z 1909/2012 28004KT P6SM FEW040 BKN250 
     FM191200 02006KT P6SM SCT120 BKN250 
     FM191500 05006KT P6SM SCT025 BKN120 
     FM192100 08009KT 6SM -SN BR SCT020 OVC035 
     FM192300 09011G20KT 1SM -SN BR SCT008 OVC012 
     FM200300 07012G23KT 3/4SM RASN BR OVC009 
     FM200500 08011G23KT 2SM RA BR OVC009 
     FM201100 04008KT 2SM RA BR OVC009
       
KFWN 190953Z AUTO 00000KT 10SM CLR M07/M09 A3018 RMK AO2 SLP226 I1000 T10721089 $
KTEB 190951Z 32003KT 10SM CLR M02/M06 A3020 RMK AO2 SLP227 T10221061
KTEB 190833Z 1909/2012 VRB03KT P6SM FEW040 SCT250 
     FM191100 01004KT P6SM SCT150 BKN250 
     FM191400 04005KT P6SM SCT025 BKN120 
     FM192100 09008KT 6SM -SN SCT020 OVC035 
     FM192300 09010G18KT 1SM -SN BR SCT008 OVC012 
     FM200300 08010G22KT 3/4SM -SN BR OVC009 
     FM200500 08010G22KT 3SM RA BR OVC009 
     FM201100 04007KT 3SM RA BR OVC009
       
KMJX 190936Z AUTO 00000KT 2 1/2SM BR OVC044 M01/M02 A3021 RMK AO2 FZRANO
KTTN 190453Z AUTO 30005KT 4SM BR OVC044 01/M01 A3019 RMK AO2 SLP220 T00111011 400221022
KTTN 190520Z 1906/2006 VRB03KT P6SM BKN050 
     TEMPO 1906/1910 4SM BR 
     FM191300 05005KT P6SM OVC200 
     FM192100 10010KT 4SM -SN OVC015 
     FM200000 09011KT 2SM -SN OVC008
       
KWWD 190955Z AUTO 05005KT 7SM BKN050 M01/M01 A3020 RMK AO2 SLP228 T10061011 FZRANO
KWRI 190931Z COR 00000KT 4SM BR BKN044 M02/M02 A3017 RMK AO2A SLP218 $ COR 0932
TAF KWRI 190200Z 1902/2008 VRB06KT 8000 BR SCT010 BKN060 QNH3010INS 
     BECMG 1905/1906 30006KT 9000 BR BKN030 QNH3006INS 
     BECMG 1908/1909 34006KT 9999 NSW FEW120 QNH3019INS 
     BECMG 1914/1915 06012KT 9999 OVC020 QNH3016INS 
     BECMG 1921/1922 08009KT 9000 -RASN BKN008 620089 QNH2990INS TX03/2002Z
TNM03/1911Z